Terminal Aerodrome Forecast
Issued by NWS

Home | Current Version | Previous Version | Text Only | Print | Product List | Glossary On
Versions: 1 2 3 4 5 6 7 8 9 10 11 12
812
FTUS46 KMTR 062329
TAFSNS
TAF
KSNS 062329Z 0700/0724 VRB05KT P6SM SCT200
     FM070600 11006KT P6SM SKC
     FM072100 02008KT P6SM SKC=

USA.gov is the U.S. government's official web portal to all federal, state and local government web resources and services.